sensor_id;sensor_type;location;lat;lon;timestamp;pressure;altitude;pressure_sealevel;temperature;humidity
47536;BME280;33278;50.826;9.030;2022-09-12T00:01:35;98830.97;;;18.90;55.26
47536;BME280;33278;50.826;9.030;2022-09-12T00:04:06;98839.06;;;18.90;54.59
47536;BME280;33278;50.826;9.030;2022-09-12T00:06:37;98840.47;;;18.88;54.75
47536;BME280;33278;50.826;9.030;2022-09-12T00:09:10;98827.59;;;18.85;54.90
47536;BME280;33278;50.826;9.030;2022-09-12T00:11:44;98831.06;;;18.85;54.64
47536;BME280;33278;50.826;9.030;2022-09-12T00:14:16;98828.75;;;18.78;54.71
47536;BME280;33278;50.826;9.030;2022-09-12T00:16:47;98823.09;;;18.80;55.10
47536;BME280;33278;50.826;9.030;2022-09-12T00:19:17;98822.47;;;18.83;54.81
47536;BME280;33278;50.826;9.030;2022-09-12T00:21:48;98822.78;;;18.81;54.91
47536;BME280;33278;50.826;9.030;2022-09-12T00:24:18;98820.66;;;18.78;54.92
47536;BME280;33278;50.826;9.030;2022-09-12T00:26:48;98827.97;;;18.78;54.75
47536;BME280;33278;50.826;9.030;2022-09-12T00:29:20;98825.38;;;18.73;54.68
47536;BME280;33278;50.826;9.030;2022-09-12T00:31:51;98827.59;;;18.71;54.94
47536;BME280;33278;50.826;9.030;2022-09-12T00:34:21;98819.47;;;18.71;54.44
47536;BME280;33278;50.826;9.030;2022-09-12T00:36:51;98817.88;;;18.70;54.39
47536;BME280;33278;50.826;9.030;2022-09-12T00:39:21;98815.69;;;18.72;54.55
47536;BME280;33278;50.826;9.030;2022-09-12T00:41:52;98821.38;;;18.70;54.54
47536;BME280;33278;50.826;9.030;2022-09-12T00:47:28;98821.16;;;18.66;54.61
47536;BME280;33278;50.826;9.030;2022-09-12T00:50:08;98816.09;;;18.65;54.62
47536;BME280;33278;50.826;9.030;2022-09-12T00:52:48;98818.00;;;18.64;54.30
47536;BME280;33278;50.826;9.030;2022-09-12T00:55:34;98819.88;;;18.64;54.45
47536;BME280;33278;50.826;9.030;2022-09-12T00:58:09;98818.56;;;18.61;54.51
47536;BME280;33278;50.826;9.030;2022-09-12T01:00:41;98807.28;;;18.59;54.04
47536;BME280;33278;50.826;9.030;2022-09-12T01:03:15;98812.47;;;18.56;54.32
47536;BME280;33278;50.826;9.030;2022-09-12T01:06:07;98811.69;;;18.55;54.52
47536;BME280;33278;50.826;9.030;2022-09-12T01:08:42;98807.38;;;18.54;54.55
47536;BME280;33278;50.826;9.030;2022-09-12T01:11:13;98810.38;;;18.53;54.07
47536;BME280;33278;50.826;9.030;2022-09-12T01:13:44;98808.78;;;18.51;54.22
47536;BME280;33278;50.826;9.030;2022-09-12T01:16:15;98806.97;;;18.47;54.55
47536;BME280;33278;50.826;9.030;2022-09-12T01:22:10;98808.06;;;18.46;54.27
47536;BME280;33278;50.826;9.030;2022-09-12T01:28:06;98799.59;;;18.39;53.91
47536;BME280;33278;50.826;9.030;2022-09-12T01:30:48;98797.19;;;18.37;54.54
47536;BME280;33278;50.826;9.030;2022-09-12T01:36:26;98801.19;;;18.40;54.34
47536;BME280;33278;50.826;9.030;2022-09-12T01:41:58;98806.38;;;18.36;54.33
47536;BME280;33278;50.826;9.030;2022-09-12T01:44:36;98796.69;;;18.35;53.75
47536;BME280;33278;50.826;9.030;2022-09-12T01:50:03;98794.09;;;18.30;54.23
47536;BME280;33278;50.826;9.030;2022-09-12T01:52:45;98804.94;;;18.25;53.68
47536;BME280;33278;50.826;9.030;2022-09-12T01:55:27;98794.66;;;18.27;54.06
47536;BME280;33278;50.826;9.030;2022-09-12T01:58:05;98786.06;;;18.25;53.85
47536;BME280;33278;50.826;9.030;2022-09-12T02:00:42;98783.09;;;18.26;54.11
47536;BME280;33278;50.826;9.030;2022-09-12T02:03:18;98787.41;;;18.27;53.64
47536;BME280;33278;50.826;9.030;2022-09-12T02:05:54;98781.38;;;18.58;53.57
47536;BME280;33278;50.826;9.030;2022-09-12T02:08:35;98780.69;;;18.80;53.36
47536;BME280;33278;50.826;9.030;2022-09-12T02:11:10;98770.28;;;18.88;52.84
47536;BME280;33278;50.826;9.030;2022-09-12T02:13:56;98770.19;;;18.93;52.89
47536;BME280;33278;50.826;9.030;2022-09-12T02:16:31;98779.00;;;18.98;53.15
47536;BME280;33278;50.826;9.030;2022-09-12T02:19:08;98779.50;;;19.01;53.07
47536;BME280;33278;50.826;9.030;2022-09-12T02:21:48;98780.97;;;19.07;52.72
47536;BME280;33278;50.826;9.030;2022-09-12T02:24:21;98772.22;;;19.24;53.36
47536;BME280;33278;50.826;9.030;2022-09-12T02:26:56;98772.72;;;19.26;53.81
47536;BME280;33278;50.826;9.030;2022-09-12T02:29:27;98772.81;;;19.35;53.93
47536;BME280;33278;50.826;9.030;2022-09-12T02:32:05;98779.78;;;19.36;54.13
47536;BME280;33278;50.826;9.030;2022-09-12T02:34:51;98769.47;;;19.38;54.04
47536;BME280;33278;50.826;9.030;2022-09-12T02:39:58;98770.00;;;19.40;54.92
47536;BME280;33278;50.826;9.030;2022-09-12T02:42:29;98765.44;;;19.49;55.07
47536;BME280;33278;50.826;9.030;2022-09-12T02:44:59;98760.06;;;19.49;55.19
47536;BME280;33278;50.826;9.030;2022-09-12T02:47:44;98756.97;;;19.42;55.48
47536;BME280;33278;50.826;9.030;2022-09-12T02:50:16;98760.59;;;19.37;55.46
47536;BME280;33278;50.826;9.030;2022-09-12T02:52:47;98761.38;;;19.38;55.23
47536;BME280;33278;50.826;9.030;2022-09-12T02:55:18;98756.28;;;19.36;55.30
47536;BME280;33278;50.826;9.030;2022-09-12T02:57:48;98761.69;;;19.36;55.54
47536;BME280;33278;50.826;9.030;2022-09-12T03:00:18;98762.00;;;19.35;55.24
47536;BME280;33278;50.826;9.030;2022-09-12T03:06:15;98760.09;;;19.35;55.49
47536;BME280;33278;50.826;9.030;2022-09-12T03:14:59;98765.50;;;19.35;55.21
47536;BME280;33278;50.826;9.030;2022-09-12T03:17:43;98763.59;;;19.36;55.07
47536;BME280;33278;50.826;9.030;2022-09-12T03:22:58;98762.28;;;19.33;54.73
47536;BME280;33278;50.826;9.030;2022-09-12T03:25:41;98763.91;;;19.34;55.49
47536;BME280;33278;50.826;9.030;2022-09-12T03:28:15;98759.31;;;19.35;55.37
47536;BME280;33278;50.826;9.030;2022-09-12T03:30:47;98759.31;;;19.35;55.31
47536;BME280;33278;50.826;9.030;2022-09-12T03:33:21;98764.41;;;19.36;55.35
47536;BME280;33278;50.826;9.030;2022-09-12T03:35:52;98763.59;;;19.36;55.31
47536;BME280;33278;50.826;9.030;2022-09-12T03:38:23;98763.09;;;19.34;54.89
47536;BME280;33278;50.826;9.030;2022-09-12T03:40:54;98753.91;;;19.35;55.16
47536;BME280;33278;50.826;9.030;2022-09-12T03:43:24;98760.09;;;19.35;55.53
47536;BME280;33278;50.826;9.030;2022-09-12T03:45:54;98757.72;;;19.34;54.88
47536;BME280;33278;50.826;9.030;2022-09-12T03:48:25;98755.78;;;19.34;55.34
47536;BME280;33278;50.826;9.030;2022-09-12T03:50:58;98755.00;;;19.34;54.76
47536;BME280;33278;50.826;9.030;2022-09-12T03:53:29;98755.78;;;19.34;54.83
47536;BME280;33278;50.826;9.030;2022-09-12T03:56:04;98763.09;;;19.34;55.37
47536;BME280;33278;50.826;9.030;2022-09-12T03:58:36;98758.50;;;19.34;54.97
47536;BME280;33278;50.826;9.030;2022-09-12T04:01:16;98764.72;;;19.35;55.04
47536;BME280;33278;50.826;9.030;2022-09-12T04:03:49;98762.00;;;19.35;55.45
47536;BME280;33278;50.826;9.030;2022-09-12T04:06:21;98764.72;;;19.35;55.29
47536;BME280;33278;50.826;9.030;2022-09-12T04:08:52;98764.72;;;19.35;55.05
47536;BME280;33278;50.826;9.030;2022-09-12T04:11:23;98758.81;;;19.33;55.01
47536;BME280;33278;50.826;9.030;2022-09-12T04:13:53;98767.41;;;19.35;54.96
47536;BME280;33278;50.826;9.030;2022-09-12T04:16:23;98765.00;;;19.33;54.91
47536;BME280;33278;50.826;9.030;2022-09-12T04:18:54;98755.59;;;19.30;55.17
47536;BME280;33278;50.826;9.030;2022-09-12T04:21:24;98769.91;;;19.31;55.31
47536;BME280;33278;50.826;9.030;2022-09-12T04:23:54;98773.09;;;19.33;55.30
47536;BME280;33278;50.826;9.030;2022-09-12T04:26:24;98761.50;;;19.33;54.86
47536;BME280;33278;50.826;9.030;2022-09-12T04:28:55;98763.72;;;19.30;55.06
47536;BME280;33278;50.826;9.030;2022-09-12T04:31:26;98756.69;;;19.29;54.90
47536;BME280;33278;50.826;9.030;2022-09-12T04:33:59;98760.50;;;19.28;54.82
47536;BME280;33278;50.826;9.030;2022-09-12T04:36:30;98760.22;;;19.30;54.85
47536;BME280;33278;50.826;9.030;2022-09-12T04:39:01;98761.00;;;19.30;54.67
47536;BME280;33278;50.826;9.030;2022-09-12T04:41:36;98762.09;;;19.29;54.65
47536;BME280;33278;50.826;9.030;2022-09-12T04:44:10;98763.22;;;19.28;54.93
47536;BME280;33278;50.826;9.030;2022-09-12T04:46:43;98760.50;;;19.28;55.06
47536;BME280;33278;50.826;9.030;2022-09-12T04:49:14;98762.41;;;19.28;54.85
47536;BME280;33278;50.826;9.030;2022-09-12T04:51:51;98758.63;;;19.29;54.70
47536;BME280;33278;50.826;9.030;2022-09-12T04:54:22;98759.72;;;19.28;54.86
47536;BME280;33278;50.826;9.030;2022-09-12T04:56:52;98761.78;;;19.31;54.93
47536;BME280;33278;50.826;9.030;2022-09-12T04:59:24;98758.63;;;19.29;54.94
47536;BME280;33278;50.826;9.030;2022-09-12T05:01:55;98769.91;;;19.31;54.94
47536;BME280;33278;50.826;9.030;2022-09-12T05:04:25;98768.78;;;19.32;54.85
47536;BME280;33278;50.826;9.030;2022-09-12T05:06:56;98766.41;;;19.30;54.64
47536;BME280;33278;50.826;9.030;2022-09-12T05:09:26;98767.50;;;19.29;54.67
47536;BME280;33278;50.826;9.030;2022-09-12T05:11:56;98761.91;;;19.26;54.70
47536;BME280;33278;50.826;9.030;2022-09-12T05:14:27;98763.22;;;19.28;55.10
47536;BME280;33278;50.826;9.030;2022-09-12T05:16:57;98762.09;;;19.29;54.95
47536;BME280;33278;50.826;9.030;2022-09-12T05:19:30;98763.72;;;19.30;54.82
47536;BME280;33278;50.826;9.030;2022-09-12T05:22:01;98763.72;;;19.30;54.85
47536;BME280;33278;50.826;9.030;2022-09-12T05:24:31;98757.53;;;19.30;54.85
47536;BME280;33278;50.826;9.030;2022-09-12T05:27:02;98762.59;;;19.32;55.25
47536;BME280;33278;50.826;9.030;2022-09-12T05:29:33;98772.31;;;19.33;55.26
47536;BME280;33278;50.826;9.030;2022-09-12T05:32:04;98772.31;;;19.33;54.83
47536;BME280;33278;50.826;9.030;2022-09-12T05:34:34;98770.72;;;19.32;54.80
47536;BME280;33278;50.826;9.030;2022-09-12T05:37:04;98770.22;;;19.29;54.55
47536;BME280;33278;50.826;9.030;2022-09-12T05:39:35;98773.72;;;19.30;54.83
47536;BME280;33278;50.826;9.030;2022-09-12T05:42:05;98779.41;;;19.28;54.85
47536;BME280;33278;50.826;9.030;2022-09-12T05:44:36;98774.00;;;19.28;54.35
47536;BME280;33278;50.826;9.030;2022-09-12T05:47:06;98770.22;;;19.29;54.58
47536;BME280;33278;50.826;9.030;2022-09-12T05:49:36;98769.13;;;19.30;54.71
47536;BME280;33278;50.826;9.030;2022-09-12T05:52:07;98770.22;;;19.29;54.46
47536;BME280;33278;50.826;9.030;2022-09-12T05:54:37;98773.72;;;19.30;54.67
47536;BME280;33278;50.826;9.030;2022-09-12T05:57:08;98780.69;;;19.31;55.02
47536;BME280;33278;50.826;9.030;2022-09-12T05:59:38;98777.72;;;19.33;54.85
47536;BME280;33278;50.826;9.030;2022-09-12T06:02:09;98781.50;;;19.32;54.77
47536;BME280;33278;50.826;9.030;2022-09-12T06:04:40;98781.50;;;19.32;54.93
47536;BME280;33278;50.826;9.030;2022-09-12T06:07:10;98778.50;;;19.33;54.93
47536;BME280;33278;50.826;9.030;2022-09-12T06:09:40;98785.81;;;19.33;54.33
47536;BME280;33278;50.826;9.030;2022-09-12T06:12:11;98789.31;;;19.33;54.60
47536;BME280;33278;50.826;9.030;2022-09-12T06:14:41;98800.94;;;19.34;54.75
47536;BME280;33278;50.826;9.030;2022-09-12T06:17:11;98790.13;;;19.34;54.39
47536;BME280;33278;50.826;9.030;2022-09-12T06:19:41;98788.53;;;19.33;54.63
47536;BME280;33278;50.826;9.030;2022-09-12T06:22:12;98793.28;;;19.36;54.29
47536;BME280;33278;50.826;9.030;2022-09-12T06:24:43;98781.72;;;19.35;54.57
47536;BME280;33278;50.826;9.030;2022-09-12T06:27:13;98789.50;;;19.37;54.60
47536;BME280;33278;50.826;9.030;2022-09-12T06:29:43;98779.00;;;19.35;54.84
47536;BME280;33278;50.826;9.030;2022-09-12T06:32:13;98778.22;;;19.35;54.67
47536;BME280;33278;50.826;9.030;2022-09-12T06:34:44;98777.09;;;19.36;54.53
47536;BME280;33278;50.826;9.030;2022-09-12T06:37:16;98773.59;;;19.35;54.53
47536;BME280;33278;50.826;9.030;2022-09-12T06:39:46;98767.88;;;19.37;54.52
47536;BME280;33278;50.826;9.030;2022-09-12T06:42:17;98772.50;;;19.36;54.51
47536;BME280;33278;50.826;9.030;2022-09-12T06:44:49;98770.59;;;19.37;54.91
47536;BME280;33278;50.826;9.030;2022-09-12T06:47:19;98774.09;;;19.37;54.99
47536;BME280;33278;50.826;9.030;2022-09-12T06:49:50;98766.78;;;19.38;54.90
47536;BME280;33278;50.826;9.030;2022-09-12T06:52:20;98766.78;;;19.38;55.08
47536;BME280;33278;50.826;9.030;2022-09-12T06:54:50;98766.78;;;19.38;54.62
47536;BME280;33278;50.826;9.030;2022-09-12T06:57:21;98767.28;;;19.40;54.51
47536;BME280;33278;50.826;9.030;2022-09-12T06:59:51;98761.88;;;19.40;54.97
47536;BME280;33278;50.826;9.030;2022-09-12T07:02:21;98761.25;;;19.43;54.93
47536;BME280;33278;50.826;9.030;2022-09-12T07:04:51;98761.25;;;19.43;54.56
47536;BME280;33278;50.826;9.030;2022-09-12T07:07:22;98759.69;;;19.42;54.99
47536;BME280;33278;50.826;9.030;2022-09-12T07:09:53;98758.56;;;19.43;54.90
47536;BME280;33278;50.826;9.030;2022-09-12T07:12:23;98770.50;;;19.42;54.58
47536;BME280;33278;50.826;9.030;2022-09-12T07:14:53;98764.75;;;19.43;55.08
47536;BME280;33278;50.826;9.030;2022-09-12T07:17:24;98758.56;;;19.43;54.56
47536;BME280;33278;50.826;9.030;2022-09-12T07:19:54;98766.66;;;19.43;54.74
47536;BME280;33278;50.826;9.030;2022-09-12T07:22:24;98768.56;;;19.42;54.92
47536;BME280;33278;50.826;9.030;2022-09-12T07:24:55;98762.38;;;19.42;54.83
47536;BME280;33278;50.826;9.030;2022-09-12T07:27:26;98764.25;;;19.41;54.80
47536;BME280;33278;50.826;9.030;2022-09-12T07:29:57;98763.47;;;19.41;54.71
47536;BME280;33278;50.826;9.030;2022-09-12T07:32:27;98769.34;;;19.43;54.62
47536;BME280;33278;50.826;9.030;2022-09-12T07:34:57;98755.84;;;19.43;54.56
47536;BME280;33278;50.826;9.030;2022-09-12T07:37:31;98763.16;;;19.42;54.94
47536;BME280;33278;50.826;9.030;2022-09-12T07:40:01;98754.28;;;19.42;54.80
47536;BME280;33278;50.826;9.030;2022-09-12T07:42:32;98754.28;;;19.42;54.59
47536;BME280;33278;50.826;9.030;2022-09-12T07:45:03;98759.69;;;19.42;54.88
47536;BME280;33278;50.826;9.030;2022-09-12T07:47:33;98753.97;;;19.43;54.53
47536;BME280;33278;50.826;9.030;2022-09-12T07:50:04;98750.94;;;19.45;54.78
47536;BME280;33278;50.826;9.030;2022-09-12T07:52:34;98750.94;;;19.45;54.72
47536;BME280;33278;50.826;9.030;2022-09-12T07:55:05;98747.75;;;19.43;54.78
47536;BME280;33278;50.826;9.030;2022-09-12T07:57:36;98755.56;;;19.44;54.80
47536;BME280;33278;50.826;9.030;2022-09-12T08:00:07;98754.47;;;19.45;54.62
47536;BME280;33278;50.826;9.030;2022-09-12T08:02:37;98749.06;;;19.45;54.58
47536;BME280;33278;50.826;9.030;2022-09-12T08:05:08;98749.84;;;19.46;54.82
47536;BME280;33278;50.826;9.030;2022-09-12T08:07:38;98757.16;;;19.45;55.09
47536;BME280;33278;50.826;9.030;2022-09-12T08:10:09;98756.34;;;19.45;54.81
47536;BME280;33278;50.826;9.030;2022-09-12T08:12:39;98750.34;;;19.48;54.60
47536;BME280;33278;50.826;9.030;2022-09-12T08:15:09;98752.22;;;19.48;54.72
47536;BME280;33278;50.826;9.030;2022-09-12T08:17:40;98750.63;;;19.46;54.77
47536;BME280;33278;50.826;9.030;2022-09-12T08:20:10;98756.84;;;19.47;54.88
47536;BME280;33278;50.826;9.030;2022-09-12T08:22:41;98758.44;;;19.48;54.88
47536;BME280;33278;50.826;9.030;2022-09-12T08:25:12;98759.22;;;19.49;54.94
47536;BME280;33278;50.826;9.030;2022-09-12T08:27:42;98755.75;;;19.48;55.24
47536;BME280;33278;50.826;9.030;2022-09-12T08:30:12;98767.03;;;19.50;54.76
47536;BME280;33278;50.826;9.030;2022-09-12T08:32:43;98756.72;;;19.52;54.81
47536;BME280;33278;50.826;9.030;2022-09-12T08:35:13;98753.22;;;19.52;54.80
47536;BME280;33278;50.826;9.030;2022-09-12T08:37:44;98760.22;;;19.53;54.74
47536;BME280;33278;50.826;9.030;2022-09-12T08:40:15;98758.31;;;19.53;54.68
47536;BME280;33278;50.826;9.030;2022-09-12T08:43:13;98760.69;;;19.55;54.87
47536;BME280;33278;50.826;9.030;2022-09-12T08:45:58;98758.81;;;19.55;54.86
47536;BME280;33278;50.826;9.030;2022-09-12T08:48:31;98756.91;;;19.56;54.85
47536;BME280;33278;50.826;9.030;2022-09-12T08:51:01;98762.00;;;19.57;54.75
47536;BME280;33278;50.826;9.030;2022-09-12T08:53:34;98757.41;;;19.58;54.81
47536;BME280;33278;50.826;9.030;2022-09-12T08:56:07;98760.88;;;19.58;54.93
47536;BME280;33278;50.826;9.030;2022-09-12T08:58:43;98762.00;;;19.57;55.15
47536;BME280;33278;50.826;9.030;2022-09-12T09:01:31;98752.50;;;19.60;54.80
47536;BME280;33278;50.826;9.030;2022-09-12T09:04:23;98754.09;;;19.61;54.66
47536;BME280;33278;50.826;9.030;2022-09-12T09:10:06;98745.66;;;19.63;55.12
47536;BME280;33278;50.826;9.030;2022-09-12T09:15:42;98750.25;;;19.62;54.08
47536;BME280;33278;50.826;9.030;2022-09-12T09:18:26;98742.97;;;19.63;54.46
47536;BME280;33278;50.826;9.030;2022-09-12T09:21:17;98740.75;;;19.65;54.04
47536;BME280;33278;50.826;9.030;2022-09-12T09:23:56;98734.84;;;19.63;54.50
47536;BME280;33278;50.826;9.030;2022-09-12T09:26:38;98732.16;;;19.63;54.09
47536;BME280;33278;50.826;9.030;2022-09-12T09:29:15;98742.34;;;19.66;54.21
47536;BME280;33278;50.826;9.030;2022-09-12T09:31:50;98736.94;;;19.66;54.45
47536;BME280;33278;50.826;9.030;2022-09-12T09:34:24;98743.94;;;19.67;53.94
47536;BME280;33278;50.826;9.030;2022-09-12T09:37:20;98740.13;;;19.68;54.21
47536;BME280;33278;50.826;9.030;2022-09-12T09:45:21;98732.03;;;19.68;54.24
47536;BME280;33278;50.826;9.030;2022-09-12T09:47:58;98736.31;;;19.69;54.38
47536;BME280;33278;50.826;9.030;2022-09-12T09:50:30;98728.22;;;19.69;53.90
47536;BME280;33278;50.826;9.030;2022-09-12T09:53:01;98724.41;;;19.70;54.20
47536;BME280;33278;50.826;9.030;2022-09-12T09:55:38;98731.72;;;19.69;54.08
47536;BME280;33278;50.826;9.030;2022-09-12T09:58:09;98726.31;;;19.69;54.07
47536;BME280;33278;50.826;9.030;2022-09-12T10:00:40;98719.00;;;19.70;53.95
47536;BME280;33278;50.826;9.030;2022-09-12T10:05:46;98716.28;;;19.70;54.06
47536;BME280;33278;50.826;9.030;2022-09-12T10:08:26;98711.69;;;19.70;54.14
47536;BME280;33278;50.826;9.030;2022-09-12T10:18:59;98714.09;;;19.72;54.36
47536;BME280;33278;50.826;9.030;2022-09-12T10:21:35;98705.16;;;19.71;54.15
47536;BME280;33278;50.826;9.030;2022-09-12T10:27:17;98708.69;;;19.72;54.42
47536;BME280;33278;50.826;9.030;2022-09-12T10:29:54;98711.38;;;19.72;53.87
47536;BME280;33278;50.826;9.030;2022-09-12T10:32:32;98712.97;;;19.73;54.09
47536;BME280;33278;50.826;9.030;2022-09-12T10:38:04;98712.16;;;19.72;54.26
47536;BME280;33278;50.826;9.030;2022-09-12T10:40:42;98707.56;;;19.73;54.33
47536;BME280;33278;50.826;9.030;2022-09-12T10:43:22;98705.66;;;19.73;54.14
47536;BME280;33278;50.826;9.030;2022-09-12T10:46:19;98699.47;;;19.73;53.91
47536;BME280;33278;50.826;9.030;2022-09-12T10:48:51;98703.75;;;19.74;54.10
47536;BME280;33278;50.826;9.030;2022-09-12T10:51:40;98701.03;;;19.74;53.85
47536;BME280;33278;50.826;9.030;2022-09-12T10:54:11;98696.44;;;19.74;54.22
47536;BME280;33278;50.826;9.030;2022-09-12T10:57:10;98696.44;;;19.74;54.05
47536;BME280;33278;50.826;9.030;2022-09-12T11:00:03;98697.22;;;19.75;54.17
47536;BME280;33278;50.826;9.030;2022-09-12T11:03:40;98696.13;;;19.76;54.27
47536;BME280;33278;50.826;9.030;2022-09-12T11:06:18;98693.44;;;19.76;54.02
47536;BME280;33278;50.826;9.030;2022-09-12T11:08:59;98686.13;;;19.76;53.96
47536;BME280;33278;50.826;9.030;2022-09-12T11:11:51;98681.00;;;19.75;54.01
47536;BME280;33278;50.826;9.030;2022-09-12T11:14:30;98678.31;;;19.75;53.85
47536;BME280;33278;50.826;9.030;2022-09-12T11:17:15;98674.50;;;19.76;53.80
47536;BME280;33278;50.826;9.030;2022-09-12T11:23:03;98682.63;;;19.76;53.84
47536;BME280;33278;50.826;9.030;2022-09-12T11:25:54;98681.50;;;19.77;54.06
47536;BME280;33278;50.826;9.030;2022-09-12T11:28:46;98678.81;;;19.77;54.33
47536;BME280;33278;50.826;9.030;2022-09-12T11:32:25;98678.03;;;19.76;53.80
47536;BME280;33278;50.826;9.030;2022-09-12T11:34:32;98675.31;;;19.76;53.89
47536;BME280;33278;50.826;9.030;2022-09-12T11:39:50;98664.97;;;19.78;54.17
47536;BME280;33278;50.826;9.030;2022-09-12T11:42:27;98664.97;;;19.78;53.80
47536;BME280;33278;50.826;9.030;2022-09-12T11:45:12;98658.47;;;19.80;54.20
47536;BME280;33278;50.826;9.030;2022-09-12T11:47:49;98657.69;;;19.79;53.99
47536;BME280;33278;50.826;9.030;2022-09-12T11:50:27;98659.56;;;19.78;53.79
47536;BME280;33278;50.826;9.030;2022-09-12T11:53:09;98663.88;;;19.80;53.94
47536;BME280;33278;50.826;9.030;2022-09-12T11:55:58;98657.69;;;19.79;53.91
47536;BME280;33278;50.826;9.030;2022-09-12T11:58:31;98647.97;;;19.78;54.04
47536;BME280;33278;50.826;9.030;2022-09-12T12:01:12;98654.16;;;19.78;53.99
47536;BME280;33278;50.826;9.030;2022-09-12T12:03:46;98650.34;;;19.80;53.79
47536;BME280;33278;50.826;9.030;2022-09-12T12:06:20;98653.88;;;19.80;53.97
47536;BME280;33278;50.826;9.030;2022-09-12T12:08:54;98637.31;;;19.82;54.04
47536;BME280;33278;50.826;9.030;2022-09-12T12:11:42;98635.41;;;19.82;53.71
47536;BME280;33278;50.826;9.030;2022-09-12T12:14:19;98636.50;;;19.81;53.69
47536;BME280;33278;50.826;9.030;2022-09-12T12:16:52;98636.50;;;19.81;53.89
47536;BME280;33278;50.826;9.030;2022-09-12T12:19:29;98632.72;;;19.82;53.91
47536;BME280;33278;50.826;9.030;2022-09-12T12:22:16;98631.91;;;19.82;53.98
47536;BME280;33278;50.826;9.030;2022-09-12T12:24:57;98628.91;;;19.83;54.01
47536;BME280;33278;50.826;9.030;2022-09-12T12:38:31;98615.38;;;19.83;53.78
47536;BME280;33278;50.826;9.030;2022-09-12T12:43:51;98610.50;;;19.85;53.86
47536;BME280;33278;50.826;9.030;2022-09-12T12:46:25;98602.69;;;19.84;54.05
47536;BME280;33278;50.826;9.030;2022-09-12T12:49:17;98601.06;;;19.83;53.99
47536;BME280;33278;50.826;9.030;2022-09-12T12:51:58;98594.06;;;19.82;54.12
47536;BME280;33278;50.826;9.030;2022-09-12T12:54:47;98595.97;;;19.81;53.85
47536;BME280;33278;50.826;9.030;2022-09-12T12:57:27;98594.06;;;19.82;53.95
47536;BME280;33278;50.826;9.030;2022-09-12T13:00:03;98592.97;;;19.83;53.85
47536;BME280;33278;50.826;9.030;2022-09-12T13:02:40;98595.97;;;19.81;54.15
47536;BME280;33278;50.826;9.030;2022-09-12T13:05:20;98583.25;;;19.82;53.77
47536;BME280;33278;50.826;9.030;2022-09-12T13:08:07;98578.63;;;19.82;54.13
47536;BME280;33278;50.826;9.030;2022-09-12T13:10:48;98583.25;;;19.82;53.66
47536;BME280;33278;50.826;9.030;2022-09-12T13:13:40;98579.75;;;19.81;53.69
47536;BME280;33278;50.826;9.030;2022-09-12T13:16:31;98571.63;;;19.81;54.01
47536;BME280;33278;50.826;9.030;2022-09-12T13:19:05;98575.47;;;19.80;54.22
47536;BME280;33278;50.826;9.030;2022-09-12T13:21:37;98564.66;;;19.80;53.70
47536;BME280;33278;50.826;9.030;2022-09-12T13:24:13;98566.56;;;19.80;53.76
47536;BME280;33278;50.826;9.030;2022-09-12T13:26:46;98569.25;;;19.80;54.17
47536;BME280;33278;50.826;9.030;2022-09-12T13:29:21;98563.84;;;19.80;54.01
47536;BME280;33278;50.826;9.030;2022-09-12T13:31:57;98558.44;;;19.80;54.05
47536;BME280;33278;50.826;9.030;2022-09-12T13:34:31;98553.84;;;19.80;53.85
47536;BME280;33278;50.826;9.030;2022-09-12T13:40:21;98544.59;;;19.81;53.71
47536;BME280;33278;50.826;9.030;2022-09-12T13:43:15;98548.91;;;19.82;54.04
47536;BME280;33278;50.826;9.030;2022-09-12T13:45:46;98544.59;;;19.81;53.52
47536;BME280;33278;50.826;9.030;2022-09-12T13:48:19;98537.63;;;19.80;53.76
47536;BME280;33278;50.826;9.030;2022-09-12T13:50:54;98532.22;;;19.80;54.03
47536;BME280;33278;50.826;9.030;2022-09-12T13:53:29;98526.50;;;19.82;53.82
47536;BME280;33278;50.826;9.030;2022-09-12T13:56:01;98534.59;;;19.82;53.86
47536;BME280;33278;50.826;9.030;2022-09-12T13:58:33;98524.09;;;19.80;53.69
47536;BME280;33278;50.826;9.030;2022-09-12T14:01:11;98527.28;;;19.82;53.73
47536;BME280;33278;50.826;9.030;2022-09-12T14:03:53;98512.16;;;19.81;53.80
47536;BME280;33278;50.826;9.030;2022-09-12T14:06:48;98522.19;;;19.81;54.12
47536;BME280;33278;50.826;9.030;2022-09-12T14:09:26;98516.78;;;19.81;53.69
47536;BME280;33278;50.826;9.030;2022-09-12T14:11:59;98517.56;;;19.81;53.56
47536;BME280;33278;50.826;9.030;2022-09-12T14:14:30;98509.47;;;19.81;54.04
47536;BME280;33278;50.826;9.030;2022-09-12T14:17:17;98501.34;;;19.81;53.87
47536;BME280;33278;50.826;9.030;2022-09-12T14:19:50;98501.34;;;19.81;53.74
47536;BME280;33278;50.826;9.030;2022-09-12T14:22:21;98507.56;;;19.82;53.46
47536;BME280;33278;50.826;9.030;2022-09-12T14:24:53;98503.75;;;19.83;54.02
47536;BME280;33278;50.826;9.030;2022-09-12T14:27:25;98504.88;;;19.82;53.79
47536;BME280;33278;50.826;9.030;2022-09-12T14:30:07;98496.75;;;19.82;53.87
47536;BME280;33278;50.826;9.030;2022-09-12T14:32:38;98485.94;;;19.82;53.52
47536;BME280;33278;50.826;9.030;2022-09-12T14:37:42;98493.22;;;19.81;53.76
47536;BME280;33278;50.826;9.030;2022-09-12T14:40:21;98489.75;;;19.81;53.61
47536;BME280;33278;50.826;9.030;2022-09-12T14:42:52;98489.75;;;19.81;53.92
47536;BME280;33278;50.826;9.030;2022-09-12T14:45:26;98487.81;;;19.81;53.81
47536;BME280;33278;50.826;9.030;2022-09-12T14:47:58;98483.56;;;19.80;53.89
47536;BME280;33278;50.826;9.030;2022-09-12T14:50:33;98471.16;;;19.79;53.78
47536;BME280;33278;50.826;9.030;2022-09-12T14:55:56;98472.75;;;19.80;53.43
47536;BME280;33278;50.826;9.030;2022-09-12T14:58:27;98471.94;;;19.80;53.75
47536;BME280;33278;50.826;9.030;2022-09-12T15:06:29;98458.09;;;19.81;53.52
47536;BME280;33278;50.826;9.030;2022-09-12T15:09:04;98458.41;;;19.80;53.69
47536;BME280;33278;50.826;9.030;2022-09-12T15:11:36;98467.34;;;19.80;53.76
47536;BME280;33278;50.826;9.030;2022-09-12T15:14:11;98461.13;;;19.80;53.85
47536;BME280;33278;50.826;9.030;2022-09-12T15:16:42;98467.03;;;19.82;53.67